sensor_id;sensor_type;location;lat;lon;timestamp;pressure;altitude;pressure_sealevel;temperature;humidity
55755;BME280;41674;52.290;-1.474;2022-09-29T00:01:17;99409.22;;;9.89;72.35
55755;BME280;41674;52.290;-1.474;2022-09-29T00:03:46;99405.40;;;9.97;74.28
55755;BME280;41674;52.290;-1.474;2022-09-29T00:06:17;99401.96;;;9.81;73.83
55755;BME280;41674;52.290;-1.474;2022-09-29T00:08:46;99400.88;;;9.82;73.48
55755;BME280;41674;52.290;-1.474;2022-09-29T00:11:18;99403.04;;;9.73;73.25
55755;BME280;41674;52.290;-1.474;2022-09-29T00:13:46;99399.48;;;9.79;71.36
55755;BME280;41674;52.290;-1.474;2022-09-29T00:16:15;99396.20;;;9.89;71.88
55755;BME280;41674;52.290;-1.474;2022-09-29T00:18:44;99392.32;;;9.33;74.03
55755;BME280;41674;52.290;-1.474;2022-09-29T00:21:15;99392.89;;;10.75;70.89
55755;BME280;41674;52.290;-1.474;2022-09-29T00:23:44;99395.08;;;10.95;71.11
55755;BME280;41674;52.290;-1.474;2022-09-29T00:26:15;99392.34;;;10.62;71.55
55755;BME280;41674;52.290;-1.474;2022-09-29T00:28:46;99389.48;;;10.00;75.50
55755;BME280;41674;52.290;-1.474;2022-09-29T00:31:12;99388.67;;;9.57;77.11
55755;BME280;41674;52.290;-1.474;2022-09-29T00:33:42;99387.31;;;9.75;77.93
55755;BME280;41674;52.290;-1.474;2022-09-29T00:36:13;99386.28;;;9.81;78.19
55755;BME280;41674;52.290;-1.474;2022-09-29T00:38:43;99385.19;;;9.41;78.20
55755;BME280;41674;52.290;-1.474;2022-09-29T00:41:15;99383.97;;;9.84;76.90
55755;BME280;41674;52.290;-1.474;2022-09-29T00:43:50;99381.84;;;9.97;77.89
55755;BME280;41674;52.290;-1.474;2022-09-29T00:46:11;99380.76;;;9.72;77.64
55755;BME280;41674;52.290;-1.474;2022-09-29T00:48:40;99387.57;;;10.12;76.91
55755;BME280;41674;52.290;-1.474;2022-09-29T00:51:10;99385.71;;;9.82;78.37
55755;BME280;41674;52.290;-1.474;2022-09-29T00:53:39;99387.75;;;10.61;76.75
55755;BME280;41674;52.290;-1.474;2022-09-29T00:56:11;99388.85;;;9.30;79.56
55755;BME280;41674;52.290;-1.474;2022-09-29T00:58:41;99388.70;;;9.50;79.61
55755;BME280;41674;52.290;-1.474;2022-09-29T01:01:09;99389.94;;;9.51;80.41
55755;BME280;41674;52.290;-1.474;2022-09-29T01:03:41;99390.72;;;9.40;80.71
55755;BME280;41674;52.290;-1.474;2022-09-29T01:06:09;99388.37;;;9.62;79.71
55755;BME280;41674;52.290;-1.474;2022-09-29T01:08:40;99391.81;;;10.10;77.87
55755;BME280;41674;52.290;-1.474;2022-09-29T01:11:07;99393.41;;;9.61;77.32
55755;BME280;41674;52.290;-1.474;2022-09-29T01:13:37;99390.02;;;10.64;75.55
55755;BME280;41674;52.290;-1.474;2022-09-29T01:16:06;99390.00;;;9.98;77.02
55755;BME280;41674;52.290;-1.474;2022-09-29T01:18:35;99385.77;;;9.87;79.26
55755;BME280;41674;52.290;-1.474;2022-09-29T01:21:14;99386.62;;;10.37;79.04
55755;BME280;41674;52.290;-1.474;2022-09-29T01:23:48;99385.05;;;9.97;79.28
55755;BME280;41674;52.290;-1.474;2022-09-29T01:28:49;99385.38;;;9.40;80.77
55755;BME280;41674;52.290;-1.474;2022-09-29T01:31:13;99384.73;;;9.57;82.28
55755;BME280;41674;52.290;-1.474;2022-09-29T01:33:38;99384.46;;;9.72;81.58
55755;BME280;41674;52.290;-1.474;2022-09-29T01:36:09;99381.10;;;9.66;82.07
55755;BME280;41674;52.290;-1.474;2022-09-29T01:38:44;99381.80;;;8.96;82.89
55755;BME280;41674;52.290;-1.474;2022-09-29T01:41:07;99383.63;;;9.02;84.18
55755;BME280;41674;52.290;-1.474;2022-09-29T01:43:35;99383.04;;;9.44;83.36
55755;BME280;41674;52.290;-1.474;2022-09-29T01:46:03;99384.77;;;9.15;83.72
55755;BME280;41674;52.290;-1.474;2022-09-29T01:48:33;99391.96;;;9.98;80.04
55755;BME280;41674;52.290;-1.474;2022-09-29T01:51:04;99389.40;;;9.48;81.24
55755;BME280;41674;52.290;-1.474;2022-09-29T01:53:34;99389.80;;;9.26;81.95
55755;BME280;41674;52.290;-1.474;2022-09-29T01:56:04;99392.56;;;9.98;79.14
55755;BME280;41674;52.290;-1.474;2022-09-29T01:58:33;99390.58;;;9.53;80.37
55755;BME280;41674;52.290;-1.474;2022-09-29T02:01:01;99389.78;;;9.59;82.45
55755;BME280;41674;52.290;-1.474;2022-09-29T02:03:31;99387.12;;;9.04;84.68
55755;BME280;41674;52.290;-1.474;2022-09-29T02:06:00;99389.36;;;8.69;85.66
55755;BME280;41674;52.290;-1.474;2022-09-29T02:08:30;99387.84;;;9.54;83.14
55755;BME280;41674;52.290;-1.474;2022-09-29T02:11:01;99389.56;;;9.97;80.79
55755;BME280;41674;52.290;-1.474;2022-09-29T02:13:29;99388.67;;;10.00;81.45
55755;BME280;41674;52.290;-1.474;2022-09-29T02:15:57;99386.54;;;9.87;80.83
55755;BME280;41674;52.290;-1.474;2022-09-29T02:18:30;99385.33;;;10.37;79.04
55755;BME280;41674;52.290;-1.474;2022-09-29T02:20:55;99385.82;;;10.48;77.22
55755;BME280;41674;52.290;-1.474;2022-09-29T02:23:25;99386.59;;;9.94;80.15
55755;BME280;41674;52.290;-1.474;2022-09-29T02:25:56;99387.54;;;9.58;81.27
55755;BME280;41674;52.290;-1.474;2022-09-29T02:28:24;99386.35;;;8.54;86.56
55755;BME280;41674;52.290;-1.474;2022-09-29T02:30:54;99383.87;;;8.71;87.48
55755;BME280;41674;52.290;-1.474;2022-09-29T02:33:24;99384.79;;;8.14;90.19
55755;BME280;41674;52.290;-1.474;2022-09-29T02:36:00;99382.44;;;8.55;88.51
55755;BME280;41674;52.290;-1.474;2022-09-29T02:38:30;99384.57;;;8.62;90.40
55755;BME280;41674;52.290;-1.474;2022-09-29T02:40:58;99382.81;;;8.46;89.55
55755;BME280;41674;52.290;-1.474;2022-09-29T02:43:34;99385.63;;;8.33;90.28
55755;BME280;41674;52.290;-1.474;2022-09-29T02:46:01;99387.06;;;8.05;92.42
55755;BME280;41674;52.290;-1.474;2022-09-29T02:48:34;99390.61;;;8.68;90.88
55755;BME280;41674;52.290;-1.474;2022-09-29T02:50:57;99395.49;;;9.21;88.26
55755;BME280;41674;52.290;-1.474;2022-09-29T02:53:30;99397.53;;;9.78;86.59
55755;BME280;41674;52.290;-1.474;2022-09-29T02:55:57;99395.18;;;9.57;86.44
55755;BME280;41674;52.290;-1.474;2022-09-29T02:58:26;99397.99;;;9.90;85.92
55755;BME280;41674;52.290;-1.474;2022-09-29T03:00:49;99395.79;;;9.05;89.21
55755;BME280;41674;52.290;-1.474;2022-09-29T03:03:19;99394.60;;;9.35;88.36
55755;BME280;41674;52.290;-1.474;2022-09-29T03:05:53;99397.11;;;8.48;91.75
55755;BME280;41674;52.290;-1.474;2022-09-29T03:08:18;99396.17;;;8.18;92.04
55755;BME280;41674;52.290;-1.474;2022-09-29T03:10:47;99397.13;;;8.90;89.22
55755;BME280;41674;52.290;-1.474;2022-09-29T03:13:17;99389.71;;;9.13;87.49
55755;BME280;41674;52.290;-1.474;2022-09-29T03:15:47;99389.54;;;9.51;86.58
55755;BME280;41674;52.290;-1.474;2022-09-29T03:18:16;99387.16;;;8.91;87.66
55755;BME280;41674;52.290;-1.474;2022-09-29T03:20:46;99385.59;;;9.13;87.42
55755;BME280;41674;52.290;-1.474;2022-09-29T03:23:16;99391.56;;;9.30;86.95
55755;BME280;41674;52.290;-1.474;2022-09-29T03:25:45;99391.76;;;9.17;89.25
55755;BME280;41674;52.290;-1.474;2022-09-29T03:28:15;99393.18;;;8.94;90.06
55755;BME280;41674;52.290;-1.474;2022-09-29T03:30:45;99392.68;;;8.77;91.30
55755;BME280;41674;52.290;-1.474;2022-09-29T03:33:14;99388.30;;;9.58;88.97
55755;BME280;41674;52.290;-1.474;2022-09-29T03:35:44;99392.06;;;9.64;88.87
55755;BME280;41674;52.290;-1.474;2022-09-29T03:38:13;99396.00;;;10.00;87.26
55755;BME280;41674;52.290;-1.474;2022-09-29T03:40:43;99399.40;;;9.30;88.60
55755;BME280;41674;52.290;-1.474;2022-09-29T03:43:13;99398.05;;;9.82;87.00
55755;BME280;41674;52.290;-1.474;2022-09-29T03:45:48;99399.64;;;9.08;90.08
55755;BME280;41674;52.290;-1.474;2022-09-29T03:48:12;99400.21;;;9.45;87.92
55755;BME280;41674;52.290;-1.474;2022-09-29T03:50:43;99404.87;;;9.08;90.88
55755;BME280;41674;52.290;-1.474;2022-09-29T03:53:12;99407.28;;;8.97;91.60
55755;BME280;41674;52.290;-1.474;2022-09-29T03:55:45;99413.14;;;8.53;94.60
55755;BME280;41674;52.290;-1.474;2022-09-29T03:58:10;99415.28;;;9.37;89.99
55755;BME280;41674;52.290;-1.474;2022-09-29T04:00:40;99413.12;;;9.80;89.04
55755;BME280;41674;52.290;-1.474;2022-09-29T04:03:10;99412.03;;;9.51;89.18
55755;BME280;41674;52.290;-1.474;2022-09-29T04:05:40;99412.49;;;9.24;89.47
55755;BME280;41674;52.290;-1.474;2022-09-29T04:08:09;99413.45;;;8.82;90.45
55755;BME280;41674;52.290;-1.474;2022-09-29T04:10:39;99414.62;;;9.70;88.49
55755;BME280;41674;52.290;-1.474;2022-09-29T04:13:08;99417.51;;;9.10;91.28
55755;BME280;41674;52.290;-1.474;2022-09-29T04:15:38;99418.92;;;8.89;92.53
55755;BME280;41674;52.290;-1.474;2022-09-29T04:18:08;99423.57;;;8.48;94.71
55755;BME280;41674;52.290;-1.474;2022-09-29T04:20:37;99422.20;;;8.95;93.39
55755;BME280;41674;52.290;-1.474;2022-09-29T04:23:07;99421.43;;;9.32;92.05
55755;BME280;41674;52.290;-1.474;2022-09-29T04:25:36;99420.84;;;9.92;89.66
55755;BME280;41674;52.290;-1.474;2022-09-29T04:28:06;99425.25;;;9.71;87.97
55755;BME280;41674;52.290;-1.474;2022-09-29T04:30:36;99426.03;;;9.48;89.33
55755;BME280;41674;52.290;-1.474;2022-09-29T04:33:05;99428.57;;;9.74;88.36
55755;BME280;41674;52.290;-1.474;2022-09-29T04:35:35;99427.46;;;10.36;86.07
55755;BME280;41674;52.290;-1.474;2022-09-29T04:38:05;99430.82;;;10.76;84.71
55755;BME280;41674;52.290;-1.474;2022-09-29T04:40:35;99431.81;;;10.67;84.19
55755;BME280;41674;52.290;-1.474;2022-09-29T04:43:04;99434.69;;;10.86;83.53
55755;BME280;41674;52.290;-1.474;2022-09-29T04:45:33;99436.34;;;10.97;82.70
55755;BME280;41674;52.290;-1.474;2022-09-29T04:48:03;99435.60;;;10.50;83.21
55755;BME280;41674;52.290;-1.474;2022-09-29T04:50:33;99441.08;;;10.94;81.68
55755;BME280;41674;52.290;-1.474;2022-09-29T04:53:02;99441.82;;;11.33;81.20
55755;BME280;41674;52.290;-1.474;2022-09-29T04:55:32;99445.90;;;10.68;82.74
55755;BME280;41674;52.290;-1.474;2022-09-29T04:58:01;99443.29;;;10.61;83.76
55755;BME280;41674;52.290;-1.474;2022-09-29T05:00:31;99444.79;;;11.11;82.56
55755;BME280;41674;52.290;-1.474;2022-09-29T05:03:01;99449.73;;;10.54;82.91
55755;BME280;41674;52.290;-1.474;2022-09-29T05:05:30;99452.62;;;10.03;86.99
55755;BME280;41674;52.290;-1.474;2022-09-29T05:08:02;99450.99;;;10.19;85.95
55755;BME280;41674;52.290;-1.474;2022-09-29T05:10:29;99447.54;;;10.54;85.00
55755;BME280;41674;52.290;-1.474;2022-09-29T05:12:59;99452.69;;;11.08;83.48
55755;BME280;41674;52.290;-1.474;2022-09-29T05:15:29;99451.65;;;10.84;82.67
55755;BME280;41674;52.290;-1.474;2022-09-29T05:18:01;99449.92;;;11.64;81.53
55755;BME280;41674;52.290;-1.474;2022-09-29T05:20:28;99451.28;;;11.42;81.17
55755;BME280;41674;52.290;-1.474;2022-09-29T05:22:58;99456.78;;;10.89;82.05
55755;BME280;41674;52.290;-1.474;2022-09-29T05:25:27;99456.61;;;10.29;85.92
55755;BME280;41674;52.290;-1.474;2022-09-29T05:27:57;99457.67;;;10.60;84.10
55755;BME280;41674;52.290;-1.474;2022-09-29T05:30:26;99458.51;;;11.13;81.81
55755;BME280;41674;52.290;-1.474;2022-09-29T05:32:56;99461.94;;;10.89;81.08
55755;BME280;41674;52.290;-1.474;2022-09-29T05:35:31;99462.39;;;11.19;79.91
55755;BME280;41674;52.290;-1.474;2022-09-29T05:37:55;99467.66;;;10.53;81.07
55755;BME280;41674;52.290;-1.474;2022-09-29T05:40:26;99470.79;;;10.87;81.07
55755;BME280;41674;52.290;-1.474;2022-09-29T05:42:55;99472.56;;;10.76;81.26
55755;BME280;41674;52.290;-1.474;2022-09-29T05:45:26;99474.01;;;11.31;79.10
55755;BME280;41674;52.290;-1.474;2022-09-29T05:47:54;99468.96;;;11.65;77.80
55755;BME280;41674;52.290;-1.474;2022-09-29T05:50:23;99472.29;;;11.53;77.99
55755;BME280;41674;52.290;-1.474;2022-09-29T05:52:53;99474.15;;;11.73;77.11
55755;BME280;41674;52.290;-1.474;2022-09-29T05:55:22;99483.46;;;11.56;78.20
55755;BME280;41674;52.290;-1.474;2022-09-29T05:57:52;99476.72;;;11.68;76.69
55755;BME280;41674;52.290;-1.474;2022-09-29T06:00:21;99481.35;;;12.25;75.61
55755;BME280;41674;52.290;-1.474;2022-09-29T06:02:51;99481.02;;;11.82;75.98
55755;BME280;41674;52.290;-1.474;2022-09-29T06:05:21;99487.30;;;11.98;75.81
55755;BME280;41674;52.290;-1.474;2022-09-29T06:07:51;99489.85;;;12.19;74.65
55755;BME280;41674;52.290;-1.474;2022-09-29T06:10:21;99495.65;;;11.97;76.06
55755;BME280;41674;52.290;-1.474;2022-09-29T06:12:50;99496.69;;;12.20;75.72
55755;BME280;41674;52.290;-1.474;2022-09-29T06:15:19;99500.89;;;12.14;75.26
55755;BME280;41674;52.290;-1.474;2022-09-29T06:17:54;99507.10;;;11.36;79.11
55755;BME280;41674;52.290;-1.474;2022-09-29T06:20:19;99505.88;;;11.73;78.67
55755;BME280;41674;52.290;-1.474;2022-09-29T06:22:48;99504.65;;;11.68;78.69
55755;BME280;41674;52.290;-1.474;2022-09-29T06:25:18;99508.65;;;11.66;79.67
55755;BME280;41674;52.290;-1.474;2022-09-29T06:27:47;99512.94;;;11.13;80.91
55755;BME280;41674;52.290;-1.474;2022-09-29T06:30:17;99520.01;;;11.62;80.22
55755;BME280;41674;52.290;-1.474;2022-09-29T06:32:46;99524.72;;;11.63;80.08
55755;BME280;41674;52.290;-1.474;2022-09-29T06:35:16;99528.43;;;11.48;80.49
55755;BME280;41674;52.290;-1.474;2022-09-29T06:37:46;99531.27;;;11.62;79.74
55755;BME280;41674;52.290;-1.474;2022-09-29T06:40:15;99529.82;;;11.87;79.17
55755;BME280;41674;52.290;-1.474;2022-09-29T06:42:45;99532.95;;;11.97;79.79
55755;BME280;41674;52.290;-1.474;2022-09-29T06:45:15;99535.72;;;12.01;79.11
55755;BME280;41674;52.290;-1.474;2022-09-29T06:47:44;99534.84;;;11.86;79.43
55755;BME280;41674;52.290;-1.474;2022-09-29T06:50:14;99536.93;;;12.33;78.94
55755;BME280;41674;52.290;-1.474;2022-09-29T06:52:43;99539.36;;;11.78;79.67
55755;BME280;41674;52.290;-1.474;2022-09-29T06:55:13;99545.34;;;11.54;81.33
55755;BME280;41674;52.290;-1.474;2022-09-29T06:57:42;99553.30;;;11.60;81.64
55755;BME280;41674;52.290;-1.474;2022-09-29T07:00:12;99556.59;;;11.43;82.61
55755;BME280;41674;52.290;-1.474;2022-09-29T07:02:44;99560.33;;;11.89;80.23
55755;BME280;41674;52.290;-1.474;2022-09-29T07:05:11;99563.99;;;11.93;79.41
55755;BME280;41674;52.290;-1.474;2022-09-29T07:07:41;99568.31;;;11.64;81.32
55755;BME280;41674;52.290;-1.474;2022-09-29T07:10:10;99569.77;;;12.23;79.46
55755;BME280;41674;52.290;-1.474;2022-09-29T07:12:40;99572.43;;;12.24;79.01
55755;BME280;41674;52.290;-1.474;2022-09-29T07:15:10;99575.96;;;12.25;79.81
55755;BME280;41674;52.290;-1.474;2022-09-29T07:17:39;99578.46;;;11.85;80.38
55755;BME280;41674;52.290;-1.474;2022-09-29T07:20:09;99583.15;;;12.05;80.28
55755;BME280;41674;52.290;-1.474;2022-09-29T07:22:38;99581.28;;;12.16;80.91
55755;BME280;41674;52.290;-1.474;2022-09-29T07:25:08;99585.62;;;12.05;81.75
55755;BME280;41674;52.290;-1.474;2022-09-29T07:27:37;99591.16;;;12.33;81.73
55755;BME280;41674;52.290;-1.474;2022-09-29T07:30:09;99588.82;;;12.31;80.32
55755;BME280;41674;52.290;-1.474;2022-09-29T07:32:37;99594.19;;;12.49;81.82
55755;BME280;41674;52.290;-1.474;2022-09-29T07:35:07;99604.33;;;11.48;83.85
55755;BME280;41674;52.290;-1.474;2022-09-29T07:37:36;99608.25;;;12.06;84.21
55755;BME280;41674;52.290;-1.474;2022-09-29T07:40:06;99611.26;;;12.30;83.32
55755;BME280;41674;52.290;-1.474;2022-09-29T07:42:35;99611.27;;;12.51;82.40
55755;BME280;41674;52.290;-1.474;2022-09-29T07:45:05;99613.41;;;12.42;82.17
55755;BME280;41674;52.290;-1.474;2022-09-29T07:47:34;99617.67;;;11.80;84.75
55755;BME280;41674;52.290;-1.474;2022-09-29T07:50:05;99615.60;;;12.74;81.89
55755;BME280;41674;52.290;-1.474;2022-09-29T07:52:33;99619.08;;;10.99;87.50
55755;BME280;41674;52.290;-1.474;2022-09-29T07:55:04;99622.51;;;12.29;85.26
55755;BME280;41674;52.290;-1.474;2022-09-29T07:57:32;99627.46;;;12.28;84.08
55755;BME280;41674;52.290;-1.474;2022-09-29T08:00:03;99632.25;;;12.75;82.34
55755;BME280;41674;52.290;-1.474;2022-09-29T08:02:31;99637.48;;;12.69;83.81
55755;BME280;41674;52.290;-1.474;2022-09-29T08:05:01;99643.57;;;12.53;84.22
55755;BME280;41674;52.290;-1.474;2022-09-29T08:07:31;99648.37;;;12.59;84.27
55755;BME280;41674;52.290;-1.474;2022-09-29T08:10:00;99658.71;;;11.49;89.03
55755;BME280;41674;52.290;-1.474;2022-09-29T08:12:30;99659.30;;;12.70;84.66
55755;BME280;41674;52.290;-1.474;2022-09-29T08:15:00;99661.41;;;12.76;84.65
55755;BME280;41674;52.290;-1.474;2022-09-29T08:17:29;99668.93;;;11.46;89.00
55755;BME280;41674;52.290;-1.474;2022-09-29T08:19:59;99680.45;;;12.00;87.89
55755;BME280;41674;52.290;-1.474;2022-09-29T08:22:28;99688.38;;;10.63;94.25
55755;BME280;41674;52.290;-1.474;2022-09-29T08:24:58;99688.03;;;10.92;95.08
55755;BME280;41674;52.290;-1.474;2022-09-29T08:27:28;99691.61;;;11.43;94.61
55755;BME280;41674;52.290;-1.474;2022-09-29T08:29:57;99697.29;;;11.47;93.16
55755;BME280;41674;52.290;-1.474;2022-09-29T08:32:29;99707.17;;;10.01;100.00
55755;BME280;41674;52.290;-1.474;2022-09-29T08:34:57;99707.60;;;10.33;100.00
55755;BME280;41674;52.290;-1.474;2022-09-29T08:37:27;99709.37;;;10.86;99.93
55755;BME280;41674;52.290;-1.474;2022-09-29T08:39:56;99711.98;;;10.97;99.05
55755;BME280;41674;52.290;-1.474;2022-09-29T08:42:32;99714.97;;;11.07;99.48
55755;BME280;41674;52.290;-1.474;2022-09-29T08:44:57;99717.79;;;11.42;97.93
55755;BME280;41674;52.290;-1.474;2022-09-29T08:47:26;99719.63;;;11.53;98.81
55755;BME280;41674;52.290;-1.474;2022-09-29T08:49:56;99723.10;;;10.13;100.00
55755;BME280;41674;52.290;-1.474;2022-09-29T08:52:26;99721.78;;;11.19;100.00
55755;BME280;41674;52.290;-1.474;2022-09-29T08:54:58;99722.53;;;10.22;100.00
55755;BME280;41674;52.290;-1.474;2022-09-29T08:57:24;99716.47;;;11.45;99.60
55755;BME280;41674;52.290;-1.474;2022-09-29T08:59:54;99721.27;;;10.52;100.00
55755;BME280;41674;52.290;-1.474;2022-09-29T09:02:36;99719.31;;;10.66;100.00
55755;BME280;41674;52.290;-1.474;2022-09-29T09:05:03;99715.87;;;11.18;100.00
55755;BME280;41674;52.290;-1.474;2022-09-29T09:07:29;99718.10;;;11.71;99.29
55755;BME280;41674;52.290;-1.474;2022-09-29T09:10:00;99727.87;;;10.73;99.92
55755;BME280;41674;52.290;-1.474;2022-09-29T09:12:35;99729.25;;;11.63;98.09
55755;BME280;41674;52.290;-1.474;2022-09-29T09:15:01;99737.35;;;11.32;98.52
55755;BME280;41674;52.290;-1.474;2022-09-29T09:17:26;99744.20;;;10.28;100.00
55755;BME280;41674;52.290;-1.474;2022-09-29T09:20:03;99744.65;;;10.84;100.00
55755;BME280;41674;52.290;-1.474;2022-09-29T09:22:21;99747.07;;;10.79;100.00
55755;BME280;41674;52.290;-1.474;2022-09-29T09:24:54;99756.08;;;10.67;100.00
55755;BME280;41674;52.290;-1.474;2022-09-29T09:27:22;99769.82;;;10.83;99.89
55755;BME280;41674;52.290;-1.474;2022-09-29T09:29:47;99772.47;;;11.27;96.03
55755;BME280;41674;52.290;-1.474;2022-09-29T09:32:19;99773.21;;;12.09;92.70
55755;BME280;41674;52.290;-1.474;2022-09-29T09:34:48;99777.43;;;11.51;92.15
55755;BME280;41674;52.290;-1.474;2022-09-29T09:37:18;99783.78;;;12.32;87.36
55755;BME280;41674;52.290;-1.474;2022-09-29T09:39:48;99787.89;;;11.31;94.08
55755;BME280;41674;52.290;-1.474;2022-09-29T09:42:17;99787.95;;;11.71;90.18
55755;BME280;41674;52.290;-1.474;2022-09-29T09:44:46;99795.98;;;12.00;89.65
55755;BME280;41674;52.290;-1.474;2022-09-29T09:47:23;99795.66;;;12.29;89.36
55755;BME280;41674;52.290;-1.474;2022-09-29T09:49:46;99793.10;;;12.15;87.45
55755;BME280;41674;52.290;-1.474;2022-09-29T09:52:17;99796.81;;;12.54;85.68
55755;BME280;41674;52.290;-1.474;2022-09-29T09:54:45;99807.66;;;11.23;90.86
55755;BME280;41674;52.290;-1.474;2022-09-29T09:57:28;99807.85;;;11.16;91.74
55755;BME280;41674;52.290;-1.474;2022-09-29T09:59:51;99813.47;;;10.60;94.33
55755;BME280;41674;52.290;-1.474;2022-09-29T10:02:15;99817.25;;;11.44;93.19
55755;BME280;41674;52.290;-1.474;2022-09-29T10:04:39;99817.25;;;10.96;94.64
55755;BME280;41674;52.290;-1.474;2022-09-29T10:07:09;99818.75;;;9.99;100.00
55755;BME280;41674;52.290;-1.474;2022-09-29T10:09:38;99814.73;;;9.89;100.00
55755;BME280;41674;52.290;-1.474;2022-09-29T10:12:11;99817.58;;;11.38;95.99
55755;BME280;41674;52.290;-1.474;2022-09-29T10:14:38;99820.30;;;10.99;95.82
55755;BME280;41674;52.290;-1.474;2022-09-29T10:17:11;99823.47;;;10.73;95.27
55755;BME280;41674;52.290;-1.474;2022-09-29T10:19:53;99826.94;;;10.57;96.98
55755;BME280;41674;52.290;-1.474;2022-09-29T10:22:11;99828.92;;;10.27;99.57
55755;BME280;41674;52.290;-1.474;2022-09-29T10:24:36;99836.64;;;9.79;100.00
55755;BME280;41674;52.290;-1.474;2022-09-29T10:27:06;99834.46;;;9.94;100.00
55755;BME280;41674;52.290;-1.474;2022-09-29T10:29:38;99832.56;;;10.67;100.00
55755;BME280;41674;52.290;-1.474;2022-09-29T10:32:06;99828.38;;;11.99;95.91
55755;BME280;41674;52.290;-1.474;2022-09-29T10:34:36;99828.47;;;11.52;96.00
55755;BME280;41674;52.290;-1.474;2022-09-29T10:37:05;99831.69;;;11.73;91.52
55755;BME280;41674;52.290;-1.474;2022-09-29T10:39:39;99837.77;;;11.85;90.06
55755;BME280;41674;52.290;-1.474;2022-09-29T10:42:03;99843.48;;;12.39;88.32
55755;BME280;41674;52.290;-1.474;2022-09-29T10:44:32;99846.91;;;12.43;85.73
55755;BME280;41674;52.290;-1.474;2022-09-29T10:47:06;99853.16;;;13.28;84.28
55755;BME280;41674;52.290;-1.474;2022-09-29T10:49:31;99857.68;;;13.65;83.16
55755;BME280;41674;52.290;-1.474;2022-09-29T10:52:03;99861.60;;;13.23;81.64
55755;BME280;41674;52.290;-1.474;2022-09-29T10:54:34;99866.03;;;12.69;81.49
55755;BME280;41674;52.290;-1.474;2022-09-29T10:57:10;99873.86;;;12.30;81.40
55755;BME280;41674;52.290;-1.474;2022-09-29T10:59:30;99875.63;;;12.49;81.14
55755;BME280;41674;52.290;-1.474;2022-09-29T11:02:00;99882.14;;;13.25;78.69
55755;BME280;41674;52.290;-1.474;2022-09-29T11:04:30;99885.33;;;12.62;80.14
55755;BME280;41674;52.290;-1.474;2022-09-29T11:07:04;99884.90;;;13.26;79.24
55755;BME280;41674;52.290;-1.474;2022-09-29T11:09:34;99892.33;;;12.11;82.27
55755;BME280;41674;52.290;-1.474;2022-09-29T11:11:58;99896.58;;;12.49;81.14
55755;BME280;41674;52.290;-1.474;2022-09-29T11:14:30;99901.80;;;13.53;78.08
55755;BME280;41674;52.290;-1.474;2022-09-29T11:16:57;99906.43;;;12.75;79.72
55755;BME280;41674;52.290;-1.474;2022-09-29T11:19:28;99909.69;;;13.61;77.26
55755;BME280;41674;52.290;-1.474;2022-09-29T11:22:08;99915.62;;;13.41;79.00
55755;BME280;41674;52.290;-1.474;2022-09-29T11:24:36;99923.06;;;13.12;79.11
55755;BME280;41674;52.290;-1.474;2022-09-29T11:26:58;99921.58;;;13.33;78.82
55755;BME280;41674;52.290;-1.474;2022-09-29T11:29:30;99929.63;;;13.22;78.63
55755;BME280;41674;52.290;-1.474;2022-09-29T11:32:03;99934.24;;;12.07;81.52
55755;BME280;41674;52.290;-1.474;2022-09-29T11:34:36;99937.55;;;11.44;82.07
55755;BME280;41674;52.290;-1.474;2022-09-29T11:36:56;99939.58;;;12.36;79.79
55755;BME280;41674;52.290;-1.474;2022-09-29T11:39:32;99938.85;;;13.24;77.96
55755;BME280;41674;52.290;-1.474;2022-09-29T11:42:01;99940.46;;;13.04;75.99
55755;BME280;41674;52.290;-1.474;2022-09-29T11:44:31;99947.23;;;12.48;78.00
55755;BME280;41674;52.290;-1.474;2022-09-29T11:46:59;99949.09;;;13.90;73.09
55755;BME280;41674;52.290;-1.474;2022-09-29T11:49:31;99947.54;;;14.55;71.75
55755;BME280;41674;52.290;-1.474;2022-09-29T11:52:00;99944.94;;;13.49;75.78
55755;BME280;41674;52.290;-1.474;2022-09-29T11:54:32;99945.31;;;13.57;76.43
55755;BME280;41674;52.290;-1.474;2022-09-29T11:56:52;99948.51;;;14.82;71.24
55755;BME280;41674;52.290;-1.474;2022-09-29T11:59:30;99948.84;;;14.65;69.74
55755;BME280;41674;52.290;-1.474;2022-09-29T12:01:58;99957.61;;;13.73;72.80
55755;BME280;41674;52.290;-1.474;2022-09-29T12:04:26;99952.43;;;15.37;70.52
55755;BME280;41674;52.290;-1.474;2022-09-29T12:06:52;99960.57;;;14.86;68.85
55755;BME280;41674;52.290;-1.474;2022-09-29T12:09:26;99964.14;;;14.32;68.97
55755;BME280;41674;52.290;-1.474;2022-09-29T12:11:53;99958.92;;;14.80;69.01
55755;BME280;41674;52.290;-1.474;2022-09-29T12:14:19;99956.71;;;16.08;65.25
55755;BME280;41674;52.290;-1.474;2022-09-29T12:16:50;99960.38;;;14.79;64.51
55755;BME280;41674;52.290;-1.474;2022-09-29T12:19:16;99967.95;;;15.09;65.66
55755;BME280;41674;52.290;-1.474;2022-09-29T12:21:45;99973.22;;;14.96;64.77
55755;BME280;41674;52.290;-1.474;2022-09-29T12:24:16;99980.69;;;14.47;68.16
55755;BME280;41674;52.290;-1.474;2022-09-29T12:26:44;99984.00;;;14.74;67.98
55755;BME280;41674;52.290;-1.474;2022-09-29T12:29:20;99977.55;;;16.52;63.51
55755;BME280;41674;52.290;-1.474;2022-09-29T12:31:45;99978.02;;;17.34;60.52
55755;BME280;41674;52.290;-1.474;2022-09-29T12:34:14;99979.90;;;17.17;58.39
55755;BME280;41674;52.290;-1.474;2022-09-29T12:36:44;99985.38;;;17.12;57.80
55755;BME280;41674;52.290;-1.474;2022-09-29T12:39:21;99982.12;;;17.16;56.12
55755;BME280;41674;52.290;-1.474;2022-09-29T12:41:45;99981.44;;;15.59;59.09
55755;BME280;41674;52.290;-1.474;2022-09-29T12:46:47;99974.69;;;16.04;58.43
55755;BME280;41674;52.290;-1.474;2022-09-29T12:49:24;99969.30;;;16.46;57.97
55755;BME280;41674;52.290;-1.474;2022-09-29T12:51:44;99971.51;;;16.61;60.77
55755;BME280;41674;52.290;-1.474;2022-09-29T12:54:15;99972.71;;;17.07;58.63
55755;BME280;41674;52.290;-1.474;2022-09-29T12:56:39;99973.33;;;16.87;58.06
55755;BME280;41674;52.290;-1.474;2022-09-29T12:59:12;99969.97;;;17.18;56.37
55755;BME280;41674;52.290;-1.474;2022-09-29T13:01:37;99970.75;;;16.68;55.09
55755;BME280;41674;52.290;-1.474;2022-09-29T13:06:49;99973.46;;;17.27;52.45
55755;BME280;41674;52.290;-1.474;2022-09-29T13:09:17;99971.28;;;17.57;53.88
55755;BME280;41674;52.290;-1.474;2022-09-29T13:11:48;99977.09;;;17.02;52.60